Terminal Aerodrome Forecast
Issued by NWS Atlanta, GA

Home | Current Version | Previous Version | Text Only | Print | Product List | Glossary On
Versions: 1 2 3 4 5 6 7 8 9 10 11 12 13 14 15 16 17 18 19 20 21 22 23 24 25 26 27 28 29 30 31 32 33
518
FTUS42 KFFC 271121
TAFAHN
TAF
KAHN 271121Z 2712/2812 15007KT P6SM VCSH SCT015 BKN025
     FM271500 17012KT 6SM -SHRA BR SCT012 BKN025
      TEMPO 2718/2721 VRB15G30KT 4SM -TSRA BR BKN012CB
     FM272100 23013G22KT 6SM -RA BR BKN025
     FM272300 25009KT P6SM SCT035 BKN120
     FM280100 19005KT P6SM SCT120
     FM280800 00000KT 4SM BR SCT200
     FM281100 00000KT 2SM BR BKN006=

USA.gov is the U.S. government's official web portal to all federal, state and local government web resources and services.